createdAt,value
2024-05-09T00:00:00.954Z,5.80
2024-05-09T00:00:18.163Z,6.70
2024-05-09T00:00:29.932Z,7.90
2024-05-09T00:00:38.971Z,6.50
2024-05-09T00:00:43.985Z,5.90
2024-05-09T00:00:53.825Z,7.00
2024-05-09T00:01:04.029Z,7.80
2024-05-09T00:01:14.084Z,6.20
2024-05-09T00:01:24.071Z,5.80
2024-05-09T00:01:34.323Z,4.60
2024-05-09T00:01:44.367Z,4.20
2024-05-09T00:01:54.373Z,4.20
2024-05-09T00:02:04.381Z,5.00
2024-05-09T00:02:14.431Z,5.20
2024-05-09T00:02:24.474Z,6.40
2024-05-09T00:02:34.616Z,5.80
2024-05-09T00:02:44.581Z,6.20
2024-05-09T00:02:54.611Z,6.60
2024-05-09T00:03:04.606Z,7.20
2024-05-09T00:03:14.643Z,5.70
2024-05-09T00:03:24.745Z,5.80
2024-05-09T00:03:34.750Z,5.80
2024-05-09T00:03:44.912Z,6.40
2024-05-09T00:03:54.806Z,6.00
2024-05-09T00:04:04.985Z,5.40
2024-05-09T00:04:14.895Z,6.10
2024-05-09T00:04:24.866Z,6.50
2024-05-09T00:04:35.008Z,8.80
2024-05-09T00:04:45.081Z,9.00
2024-05-09T00:04:55.162Z,9.10
2024-05-09T00:05:05.211Z,7.00
2024-05-09T00:05:15.316Z,6.00
2024-05-09T00:05:25.527Z,6.10
2024-05-09T00:05:35.986Z,5.70
2024-05-09T00:05:45.731Z,5.60
2024-05-09T00:05:55.768Z,5.80
2024-05-09T00:06:05.921Z,7.70
2024-05-09T00:06:15.905Z,7.60
2024-05-09T00:06:25.832Z,6.80
2024-05-09T00:06:35.909Z,4.70
2024-05-09T00:06:46.036Z,4.70
2024-05-09T00:06:56.152Z,4.60
2024-05-09T00:07:06.320Z,5.00
2024-05-09T00:07:16.444Z,4.60
2024-05-09T00:07:26.594Z,7.20
2024-05-09T00:07:36.723Z,9.30
2024-05-09T00:07:46.855Z,9.50
2024-05-09T00:07:57.002Z,9.90
2024-05-09T00:08:07.043Z,8.80
2024-05-09T00:08:17.024Z,9.50
2024-05-09T00:08:27.080Z,8.80
2024-05-09T00:08:37.138Z,8.10
2024-05-09T00:08:47.131Z,6.50
2024-05-09T00:08:57.229Z,6.40
2024-05-09T00:09:07.348Z,7.00
2024-05-09T00:09:17.486Z,5.50
2024-05-09T00:09:27.609Z,5.70
2024-05-09T00:09:37.746Z,4.70
2024-05-09T00:09:47.861Z,5.40
2024-05-09T00:09:57.962Z,6.50
2024-05-09T00:10:11.831Z,10.40
2024-05-09T00:10:25.553Z,9.50
2024-05-09T00:10:36.045Z,4.10
2024-05-09T00:10:41.502Z,7.40
2024-05-09T00:10:51.077Z,7.90
2024-05-09T00:11:01.003Z,8.70
2024-05-09T00:11:11.069Z,6.10
2024-05-09T00:11:21.330Z,6.20
2024-05-09T00:11:31.184Z,6.00
2024-05-09T00:11:41.209Z,5.20
2024-05-09T00:11:51.254Z,5.00
2024-05-09T00:12:01.398Z,4.80
2024-05-09T00:12:11.342Z,4.90
2024-05-09T00:12:21.491Z,4.60
2024-05-09T00:12:31.570Z,5.30
2024-05-09T00:12:41.518Z,4.90
2024-05-09T00:12:51.668Z,4.60
2024-05-09T00:13:01.637Z,4.30
2024-05-09T00:13:11.790Z,4.90
2024-05-09T00:13:21.935Z,6.20
2024-05-09T00:13:32.066Z,5.30
2024-05-09T00:13:42.158Z,5.20
2024-05-09T00:13:52.174Z,4.50
2024-05-09T00:14:02.155Z,4.80
2024-05-09T00:14:12.142Z,4.50
2024-05-09T00:14:22.434Z,4.10
2024-05-09T00:14:32.514Z,4.70
2024-05-09T00:14:42.467Z,5.10
2024-05-09T00:14:52.459Z,5.00
2024-05-09T00:15:02.608Z,4.60
2024-05-09T00:15:12.738Z,4.10
2024-05-09T00:15:22.887Z,4.40
2024-05-09T00:15:33.037Z,5.60
2024-05-09T00:15:43.011Z,5.90
2024-05-09T00:15:53.163Z,6.30
2024-05-09T00:16:03.142Z,5.20
2024-05-09T00:16:13.278Z,6.00
2024-05-09T00:16:23.404Z,5.60
2024-05-09T00:16:33.560Z,5.70
2024-05-09T00:16:43.697Z,6.40
2024-05-09T00:16:53.928Z,6.50
2024-05-09T00:17:03.980Z,5.90
2024-05-09T00:17:14.159Z,4.40
2024-05-09T00:17:24.164Z,4.00
2024-05-09T00:17:34.156Z,4.20
2024-05-09T00:17:44.302Z,4.30
2024-05-09T00:17:54.233Z,6.20
2024-05-09T00:18:04.792Z,7.20
2024-05-09T00:18:14.477Z,7.40
2024-05-09T00:18:24.428Z,5.80
2024-05-09T00:18:34.532Z,5.70
2024-05-09T00:18:44.681Z,5.80
2024-05-09T00:18:54.709Z,5.30
2024-05-09T00:19:04.896Z,5.10
2024-05-09T00:19:14.906Z,7.80
2024-05-09T00:19:24.909Z,9.20
2024-05-09T00:19:35.019Z,9.50
2024-05-09T00:19:45.005Z,7.10
2024-05-09T00:19:55.001Z,6.10
2024-05-09T00:20:11.120Z,7.70
2024-05-09T00:20:20.612Z,7.80
2024-05-09T00:20:35.120Z,7.40
2024-05-09T00:20:40.687Z,6.50
2024-05-09T00:20:47.853Z,5.90
2024-05-09T00:20:57.909Z,6.60
2024-05-09T00:21:07.961Z,6.20
2024-05-09T00:21:18.000Z,6.60
2024-05-09T00:21:27.965Z,4.90
2024-05-09T00:21:37.998Z,4.80
2024-05-09T00:21:48.023Z,3.90
2024-05-09T00:21:58.055Z,5.10
2024-05-09T00:22:08.102Z,6.00
2024-05-09T00:22:18.154Z,6.00
2024-05-09T00:22:28.165Z,4.90
2024-05-09T00:22:38.188Z,4.20
2024-05-09T00:22:48.314Z,5.20
2024-05-09T00:22:58.331Z,5.00
2024-05-09T00:23:08.827Z,5.60
2024-05-09T00:23:18.500Z,4.90
2024-05-09T00:23:28.614Z,5.10
2024-05-09T00:23:38.608Z,4.50
2024-05-09T00:23:48.642Z,4.70
2024-05-09T00:23:58.672Z,4.50
2024-05-09T00:24:08.656Z,4.50
2024-05-09T00:24:18.643Z,4.80
2024-05-09T00:24:28.661Z,5.00
2024-05-09T00:24:38.663Z,5.00
2024-05-09T00:24:48.815Z,4.70
2024-05-09T00:24:58.833Z,4.40
2024-05-09T00:25:08.858Z,4.30
2024-05-09T00:25:18.871Z,4.10
2024-05-09T00:25:28.841Z,5.70
2024-05-09T00:25:39.029Z,6.00
2024-05-09T00:25:49.036Z,7.00
2024-05-09T00:25:59.228Z,6.40
2024-05-09T00:26:09.228Z,7.10
2024-05-09T00:26:19.230Z,6.90
2024-05-09T00:26:29.313Z,5.60
2024-05-09T00:26:39.378Z,4.50
2024-05-09T00:26:49.327Z,4.00
2024-05-09T00:26:59.469Z,5.00
2024-05-09T00:27:12.680Z,5.80
2024-05-09T00:27:19.682Z,5.70
2024-05-09T00:27:29.662Z,6.40
2024-05-09T00:27:39.807Z,6.10
2024-05-09T00:27:49.799Z,5.70
2024-05-09T00:28:00.004Z,4.40
2024-05-09T00:28:09.961Z,5.20
2024-05-09T00:28:20.099Z,5.50
2024-05-09T00:28:30.076Z,6.00
2024-05-09T00:28:40.230Z,5.70
2024-05-09T00:28:50.278Z,5.30
2024-05-09T00:29:00.335Z,5.80
2024-05-09T00:29:10.472Z,5.00
2024-05-09T00:29:20.508Z,5.80
2024-05-09T00:29:30.642Z,4.80
2024-05-09T00:29:40.614Z,7.60
2024-05-09T00:29:50.601Z,7.20
2024-05-09T00:30:00.748Z,8.70
2024-05-09T00:30:17.440Z,5.90
2024-05-09T00:30:31.034Z,5.40
2024-05-09T00:30:35.771Z,4.80
2024-05-09T00:30:42.826Z,4.70
2024-05-09T00:30:52.954Z,6.00
2024-05-09T00:31:02.952Z,6.60
2024-05-09T00:31:13.102Z,6.70
2024-05-09T00:31:23.264Z,5.80
2024-05-09T00:31:33.263Z,5.40
2024-05-09T00:31:43.448Z,5.40
2024-05-09T00:31:53.683Z,6.50
2024-05-09T00:32:03.854Z,5.70
2024-05-09T00:32:13.977Z,6.60
2024-05-09T00:32:23.979Z,5.70
2024-05-09T00:32:33.993Z,6.10
2024-05-09T00:32:44.043Z,5.60
2024-05-09T00:32:54.170Z,5.00
2024-05-09T00:33:05.142Z,4.00
2024-05-09T00:33:14.603Z,4.40
2024-05-09T00:33:24.706Z,4.40
2024-05-09T00:33:34.525Z,6.10
2024-05-09T00:33:44.634Z,6.50
2024-05-09T00:33:54.604Z,7.40
2024-05-09T00:34:04.724Z,6.60
2024-05-09T00:34:14.678Z,7.60
2024-05-09T00:34:24.852Z,7.10
2024-05-09T00:34:34.728Z,6.60
2024-05-09T00:34:44.781Z,5.20
2024-05-09T00:34:54.744Z,5.40
2024-05-09T00:35:04.756Z,5.80
2024-05-09T00:35:14.930Z,6.70
2024-05-09T00:35:25.245Z,6.60
2024-05-09T00:35:35.396Z,6.70
2024-05-09T00:35:45.134Z,5.20
2024-05-09T00:35:55.274Z,5.90
2024-05-09T00:36:05.454Z,5.70
2024-05-09T00:36:15.443Z,5.80
2024-05-09T00:36:25.476Z,5.70
2024-05-09T00:36:35.648Z,6.40
2024-05-09T00:36:45.627Z,6.70
2024-05-09T00:36:55.793Z,6.80
2024-05-09T00:37:05.872Z,6.20
2024-05-09T00:37:15.828Z,5.90
2024-05-09T00:37:25.817Z,5.00
2024-05-09T00:37:35.970Z,5.40
2024-05-09T00:37:46.001Z,5.40
2024-05-09T00:37:56.186Z,5.60
2024-05-09T00:38:06.461Z,6.80
2024-05-09T00:38:16.287Z,7.80
2024-05-09T00:38:26.293Z,8.70
2024-05-09T00:38:36.494Z,7.30
2024-05-09T00:38:46.455Z,5.00
2024-05-09T00:38:56.628Z,6.20
2024-05-09T00:39:06.773Z,6.40
2024-05-09T00:39:16.920Z,7.70
2024-05-09T00:39:27.055Z,6.40
2024-05-09T00:39:37.205Z,7.90
2024-05-09T00:39:47.388Z,6.80
2024-05-09T00:39:57.355Z,5.90
2024-05-09T00:40:12.042Z,5.40
2024-05-09T00:40:26.590Z,5.20
2024-05-09T00:40:37.678Z,4.80
2024-05-09T00:40:42.588Z,3.60
2024-05-09T00:40:50.495Z,4.60
2024-05-09T00:41:00.722Z,6.00
2024-05-09T00:41:10.742Z,7.20
2024-05-09T00:41:20.736Z,6.50
2024-05-09T00:41:30.888Z,5.10
2024-05-09T00:41:40.944Z,5.50
2024-05-09T00:41:51.006Z,5.10
2024-05-09T00:42:01.167Z,5.40
2024-05-09T00:42:11.290Z,5.30
2024-05-09T00:42:21.423Z,5.70
2024-05-09T00:42:31.566Z,6.90
2024-05-09T00:42:41.728Z,6.60
2024-05-09T00:42:51.856Z,6.90
2024-05-09T00:43:01.985Z,6.00
2024-05-09T00:43:12.991Z,7.20
2024-05-09T00:43:22.168Z,7.20
2024-05-09T00:43:32.295Z,7.10
2024-05-09T00:43:42.488Z,5.10
2024-05-09T00:43:52.466Z,5.30
2024-05-09T00:44:02.705Z,6.40
2024-05-09T00:44:12.741Z,6.20
2024-05-09T00:44:22.958Z,5.30
2024-05-09T00:44:32.826Z,4.50
2024-05-09T00:44:42.838Z,5.30
2024-05-09T00:44:52.841Z,5.60
2024-05-09T00:45:02.984Z,6.00
2024-05-09T00:45:13.111Z,6.60
2024-05-09T00:45:23.264Z,5.90
2024-05-09T00:45:33.402Z,5.40
2024-05-09T00:45:44.049Z,3.80
2024-05-09T00:45:53.544Z,4.50
2024-05-09T00:46:03.688Z,5.90
2024-05-09T00:46:13.839Z,7.20
2024-05-09T00:46:23.980Z,7.80
2024-05-09T00:46:34.002Z,6.30
2024-05-09T00:46:44.217Z,5.60
2024-05-09T00:46:54.206Z,5.90
2024-05-09T00:47:04.248Z,6.30
2024-05-09T00:47:14.356Z,6.50
2024-05-09T00:47:24.367Z,5.40
2024-05-09T00:47:34.507Z,6.80
2024-05-09T00:47:44.384Z,7.10
2024-05-09T00:47:54.554Z,6.70
2024-05-09T00:48:04.736Z,5.10
2024-05-09T00:48:17.504Z,4.40
2024-05-09T00:48:25.657Z,6.00
2024-05-09T00:48:35.658Z,5.50
2024-05-09T00:48:45.668Z,5.40
2024-05-09T00:48:55.729Z,4.40
2024-05-09T00:49:05.775Z,5.10
2024-05-09T00:49:15.872Z,5.20
2024-05-09T00:49:25.992Z,4.30
2024-05-09T00:49:36.176Z,5.90
2024-05-09T00:49:46.182Z,6.30
2024-05-09T00:49:56.226Z,8.10
2024-05-09T00:50:10.125Z,7.10
2024-05-09T00:50:22.756Z,6.60
2024-05-09T00:50:35.605Z,6.40
2024-05-09T00:50:39.300Z,5.90
2024-05-09T00:50:49.280Z,5.50
2024-05-09T00:50:59.300Z,6.50
2024-05-09T00:51:09.455Z,7.60
2024-05-09T00:51:19.645Z,7.40
2024-05-09T00:51:29.593Z,11.50
2024-05-09T00:51:39.742Z,10.90
2024-05-09T00:51:49.872Z,11.10
2024-05-09T00:52:00.032Z,7.60
2024-05-09T00:52:10.146Z,8.20
2024-05-09T00:52:20.289Z,7.90
2024-05-09T00:52:30.419Z,6.50
2024-05-09T00:52:40.435Z,6.50
2024-05-09T00:52:50.620Z,7.40
2024-05-09T00:53:00.803Z,7.40
2024-05-09T00:53:10.896Z,7.60
2024-05-09T00:53:21.122Z,7.10
2024-05-09T00:53:31.032Z,7.00
2024-05-09T00:53:40.959Z,5.60
2024-05-09T00:53:50.910Z,5.80
2024-05-09T00:54:00.952Z,5.70
2024-05-09T00:54:11.120Z,6.00
2024-05-09T00:54:21.226Z,5.00
2024-05-09T00:54:31.386Z,4.80
2024-05-09T00:54:41.505Z,5.30
2024-05-09T00:54:51.632Z,6.10
2024-05-09T00:55:01.772Z,6.30
2024-05-09T00:55:11.913Z,5.50
2024-05-09T00:55:22.073Z,5.80
2024-05-09T00:55:32.189Z,5.50
2024-05-09T00:55:42.433Z,5.20
2024-05-09T00:55:52.378Z,4.10
2024-05-09T00:56:02.525Z,4.10
2024-05-09T00:56:12.505Z,4.10
2024-05-09T00:56:22.697Z,5.30
2024-05-09T00:56:32.704Z,6.00
2024-05-09T00:56:42.660Z,7.00
2024-05-09T00:56:52.781Z,7.00
2024-05-09T00:57:02.926Z,6.30
2024-05-09T00:57:13.033Z,6.20
2024-05-09T00:57:23.153Z,4.80
2024-05-09T00:57:33.273Z,5.50
2024-05-09T00:57:43.435Z,4.50
2024-05-09T00:57:53.559Z,4.90
2024-05-09T00:58:03.684Z,4.90
2024-05-09T00:58:13.805Z,6.00
2024-05-09T00:58:23.945Z,6.50
2024-05-09T00:58:34.180Z,5.90
2024-05-09T00:58:44.205Z,4.80
2024-05-09T00:58:54.199Z,4.70
2024-05-09T00:59:04.320Z,5.20
2024-05-09T00:59:14.476Z,5.50
2024-05-09T00:59:24.532Z,6.40
2024-05-09T00:59:34.614Z,7.30
2024-05-09T00:59:44.537Z,8.00
2024-05-09T00:59:54.553Z,6.60
2024-05-09T01:00:06.080Z,5.30
2024-05-09T01:00:22.690Z,4.50
2024-05-09T01:00:32.111Z,5.40
2024-05-09T01:00:39.984Z,5.30
2024-05-09T01:00:46.736Z,5.20
2024-05-09T01:00:56.684Z,4.60
2024-05-09T01:01:06.827Z,4.20
2024-05-09T01:01:16.982Z,3.90
2024-05-09T01:01:27.192Z,3.90
2024-05-09T01:01:37.235Z,4.80
2024-05-09T01:01:47.331Z,5.50
2024-05-09T01:01:57.457Z,5.70
2024-05-09T01:02:07.511Z,6.70
2024-05-09T01:02:17.574Z,5.80
2024-05-09T01:02:27.591Z,6.50
2024-05-09T01:02:37.578Z,5.50
2024-05-09T01:02:47.782Z,5.30
2024-05-09T01:02:58.043Z,5.50
2024-05-09T01:03:08.453Z,5.00
2024-05-09T01:03:28.313Z,4.90
2024-05-09T01:03:38.350Z,4.90
2024-05-09T01:03:51.023Z,4.40
2024-05-09T01:03:58.315Z,5.10
2024-05-09T01:04:08.431Z,5.00
2024-05-09T01:04:18.426Z,6.20
2024-05-09T01:04:28.583Z,5.90
2024-05-09T01:04:38.727Z,8.80
2024-05-09T01:04:48.921Z,8.00
2024-05-09T01:04:58.920Z,7.60
2024-05-09T01:05:09.024Z,5.60
2024-05-09T01:05:19.093Z,8.10
2024-05-09T01:05:29.077Z,8.00
2024-05-09T01:05:39.895Z,7.70
2024-05-09T01:05:49.243Z,4.60
2024-05-09T01:05:59.384Z,4.50
2024-05-09T01:06:09.472Z,5.80
2024-05-09T01:06:19.578Z,6.20
2024-05-09T01:06:29.743Z,6.70
2024-05-09T01:06:39.718Z,6.20
2024-05-09T01:06:49.826Z,7.00
2024-05-09T01:06:59.950Z,6.60
2024-05-09T01:07:10.074Z,5.80
2024-05-09T01:07:20.143Z,4.60
2024-05-09T01:07:30.259Z,5.20
2024-05-09T01:07:40.349Z,5.80
2024-05-09T01:07:50.548Z,6.90
2024-05-09T01:08:00.587Z,6.00
2024-05-09T01:08:10.963Z,7.10
2024-05-09T01:08:20.865Z,6.80
2024-05-09T01:08:30.962Z,6.90
2024-05-09T01:08:40.813Z,4.80
2024-05-09T01:08:51.017Z,4.50
2024-05-09T01:09:01.140Z,5.00
2024-05-09T01:09:11.245Z,5.10
2024-05-09T01:09:21.363Z,5.50
2024-05-09T01:09:31.467Z,5.20
2024-05-09T01:09:41.590Z,6.20
2024-05-09T01:09:51.706Z,6.00
2024-05-09T01:10:01.791Z,7.20
2024-05-09T01:10:17.370Z,7.40
2024-05-09T01:10:28.195Z,8.10
2024-05-09T01:10:35.423Z,6.00
2024-05-09T01:10:45.321Z,5.20
2024-05-09T01:10:54.180Z,3.90
2024-05-09T01:11:04.250Z,5.40
2024-05-09T01:11:14.333Z,5.80
2024-05-09T01:11:24.400Z,6.10
2024-05-09T01:11:34.432Z,5.10
2024-05-09T01:11:44.691Z,4.90
2024-05-09T01:11:54.817Z,5.70
2024-05-09T01:12:04.737Z,6.50
2024-05-09T01:12:15.065Z,8.10
2024-05-09T01:12:25.021Z,8.10
2024-05-09T01:12:35.094Z,7.60
2024-05-09T01:12:45.037Z,6.60
2024-05-09T01:12:55.147Z,6.50
2024-05-09T01:13:05.693Z,6.30
2024-05-09T01:13:15.300Z,5.40
2024-05-09T01:13:25.295Z,4.40
2024-05-09T01:13:35.433Z,4.80
2024-05-09T01:13:45.628Z,4.90
2024-05-09T01:13:57.940Z,5.80
2024-05-09T01:14:08.065Z,5.60
2024-05-09T01:14:18.144Z,5.60
2024-05-09T01:14:28.252Z,4.80
2024-05-09T01:14:38.207Z,5.10
2024-05-09T01:14:48.189Z,5.10
2024-05-09T01:14:58.204Z,5.80
2024-05-09T01:15:08.192Z,8.90
2024-05-09T01:15:18.191Z,8.10
2024-05-09T01:15:28.219Z,8.40
2024-05-09T01:15:38.209Z,6.00
2024-05-09T01:15:48.371Z,6.40
2024-05-09T01:15:58.367Z,6.80
2024-05-09T01:16:08.519Z,7.60
2024-05-09T01:16:18.676Z,8.30
2024-05-09T01:16:28.660Z,8.20
2024-05-09T01:16:38.816Z,6.40
2024-05-09T01:16:49.003Z,5.60
2024-05-09T01:16:59.021Z,4.40
2024-05-09T01:17:09.164Z,5.40
2024-05-09T01:17:19.232Z,5.50
2024-05-09T01:17:29.363Z,6.90
2024-05-09T01:17:39.391Z,6.80
2024-05-09T01:17:49.454Z,6.30
2024-05-09T01:17:59.662Z,5.10
2024-05-09T01:18:10.429Z,4.50
2024-05-09T01:18:19.685Z,4.10
2024-05-09T01:18:29.737Z,5.30
2024-05-09T01:18:39.869Z,5.20
2024-05-09T01:18:50.024Z,6.30
2024-05-09T01:19:00.059Z,5.50
2024-05-09T01:19:10.154Z,5.50
2024-05-09T01:19:20.220Z,5.00
2024-05-09T01:19:30.413Z,5.00
2024-05-09T01:19:40.504Z,5.10
2024-05-09T01:19:50.581Z,5.10
2024-05-09T01:20:00.635Z,4.40
2024-05-09T01:20:16.209Z,5.90
2024-05-09T01:20:31.764Z,6.70
2024-05-09T01:20:40.856Z,6.10
2024-05-09T01:20:45.160Z,6.20
2024-05-09T01:20:53.705Z,6.70
2024-05-09T01:21:03.938Z,7.90
2024-05-09T01:21:14.180Z,6.40
2024-05-09T01:21:23.971Z,5.20
2024-05-09T01:21:33.957Z,5.00
2024-05-09T01:21:43.953Z,6.20
2024-05-09T01:21:53.918Z,7.10
2024-05-09T01:22:04.085Z,7.30
2024-05-09T01:22:14.058Z,8.00
2024-05-09T01:22:24.225Z,9.70
2024-05-09T01:22:34.371Z,9.70
2024-05-09T01:22:44.393Z,8.20
2024-05-09T01:22:54.411Z,5.60
2024-05-09T01:23:04.573Z,5.50
2024-05-09T01:23:16.137Z,5.80
2024-05-09T01:23:24.815Z,5.70
2024-05-09T01:23:35.069Z,5.00
2024-05-09T01:23:45.146Z,5.10
2024-05-09T01:23:55.106Z,5.40
2024-05-09T01:24:05.119Z,6.80
2024-05-09T01:24:15.087Z,6.80
2024-05-09T01:24:25.222Z,6.90
2024-05-09T01:24:35.230Z,6.00
2024-05-09T01:24:45.386Z,5.70
2024-05-09T01:24:55.400Z,6.40
2024-05-09T01:25:05.376Z,6.70
2024-05-09T01:25:15.528Z,8.30
2024-05-09T01:25:25.684Z,7.20
2024-05-09T01:25:35.884Z,6.90
2024-05-09T01:25:46.684Z,5.20
2024-05-09T01:25:55.905Z,5.80
2024-05-09T01:26:06.047Z,6.00
2024-05-09T01:26:16.180Z,5.20
2024-05-09T01:26:26.312Z,5.20
2024-05-09T01:26:36.327Z,4.70
2024-05-09T01:26:46.428Z,5.00
2024-05-09T01:26:56.589Z,4.20
2024-05-09T01:27:06.743Z,4.30
2024-05-09T01:27:16.887Z,5.70
2024-05-09T01:27:27.028Z,6.00
2024-05-09T01:27:37.183Z,6.60
2024-05-09T01:27:47.333Z,6.40
2024-05-09T01:27:57.490Z,6.30
2024-05-09T01:28:07.708Z,5.20
2024-05-09T01:28:17.679Z,5.00
2024-05-09T01:28:27.668Z,6.00
2024-05-09T01:28:37.839Z,5.90
2024-05-09T01:28:47.981Z,5.50
2024-05-09T01:28:58.133Z,4.70
2024-05-09T01:29:08.300Z,6.10
2024-05-09T01:29:18.290Z,6.30
2024-05-09T01:29:28.377Z,7.00
2024-05-09T01:29:38.406Z,6.30
2024-05-09T01:29:48.378Z,6.20
2024-05-09T01:29:58.527Z,5.70
2024-05-09T01:30:11.944Z,5.00
2024-05-09T01:30:24.365Z,5.00
2024-05-09T01:30:34.489Z,4.40
2024-05-09T01:30:41.476Z,5.10
2024-05-09T01:30:51.595Z,5.50
2024-05-09T01:31:01.584Z,5.30
2024-05-09T01:31:11.762Z,4.50
2024-05-09T01:31:21.892Z,5.50
2024-05-09T01:31:32.071Z,6.20
2024-05-09T01:31:42.224Z,5.90
2024-05-09T01:31:52.503Z,5.20
2024-05-09T01:32:02.562Z,4.80
2024-05-09T01:32:12.669Z,4.90
2024-05-09T01:32:22.856Z,7.10
2024-05-09T01:32:32.843Z,7.70
2024-05-09T01:32:42.992Z,7.60
2024-05-09T01:32:53.191Z,5.10
2024-05-09T01:33:03.608Z,5.40
2024-05-09T01:33:13.703Z,5.60
2024-05-09T01:33:23.540Z,6.40
2024-05-09T01:33:33.722Z,6.50
2024-05-09T01:33:43.647Z,8.10
2024-05-09T01:33:53.537Z,8.20
2024-05-09T01:34:03.558Z,7.30
2024-05-09T01:34:13.568Z,6.50
2024-05-09T01:34:23.605Z,6.00
2024-05-09T01:34:33.551Z,6.30
2024-05-09T01:34:43.601Z,7.00
2024-05-09T01:34:53.759Z,6.80
2024-05-09T01:35:03.763Z,6.40
2024-05-09T01:35:13.769Z,5.70
2024-05-09T01:35:24.027Z,6.10
2024-05-09T01:35:33.993Z,5.70
2024-05-09T01:35:43.989Z,6.20
2024-05-09T01:35:54.122Z,5.40
2024-05-09T01:36:04.122Z,6.20
2024-05-09T01:36:14.276Z,5.30
2024-05-09T01:36:24.412Z,6.80
2024-05-09T01:36:34.571Z,5.90
2024-05-09T01:36:44.710Z,5.20
2024-05-09T01:36:54.845Z,4.10
2024-05-09T01:37:04.994Z,5.50
2024-05-09T01:37:15.146Z,5.50
2024-05-09T01:37:25.157Z,6.30
2024-05-09T01:37:35.132Z,5.00
2024-05-09T01:37:45.288Z,4.90
2024-05-09T01:37:55.526Z,4.60
2024-05-09T01:38:05.634Z,5.50
2024-05-09T01:38:15.538Z,5.60
2024-05-09T01:38:25.735Z,5.40
2024-05-09T01:38:35.810Z,6.10
2024-05-09T01:38:45.803Z,6.20
2024-05-09T01:38:55.935Z,5.80
2024-05-09T01:39:06.080Z,5.90
2024-05-09T01:39:16.226Z,5.70
2024-05-09T01:39:26.361Z,5.30
2024-05-09T01:39:36.517Z,4.90
2024-05-09T01:39:46.658Z,5.40
2024-05-09T01:39:56.801Z,6.30
2024-05-09T01:40:11.947Z,7.70
2024-05-09T01:40:22.127Z,7.90
2024-05-09T01:40:37.083Z,7.60
2024-05-09T01:40:40.430Z,5.10
2024-05-09T01:40:49.740Z,6.50
2024-05-09T01:40:59.900Z,6.60
2024-05-09T01:41:09.886Z,6.50
2024-05-09T01:41:19.861Z,6.30
2024-05-09T01:41:30.095Z,5.60
2024-05-09T01:41:40.104Z,5.60
2024-05-09T01:41:50.258Z,5.00
2024-05-09T01:42:00.386Z,5.90
2024-05-09T01:42:10.560Z,6.80
2024-05-09T01:42:20.551Z,6.50
2024-05-09T01:42:30.678Z,5.40
2024-05-09T01:42:40.839Z,5.30
2024-05-09T01:42:50.987Z,5.90
2024-05-09T01:43:01.124Z,5.70
2024-05-09T01:43:12.078Z,5.50
2024-05-09T01:43:21.291Z,4.90
2024-05-09T01:43:31.445Z,6.50
2024-05-09T01:43:41.603Z,5.90
2024-05-09T01:43:51.815Z,6.10
2024-05-09T01:44:01.847Z,6.50
2024-05-09T01:44:11.870Z,6.30
2024-05-09T01:44:21.981Z,6.70
2024-05-09T01:44:32.189Z,4.90
2024-05-09T01:44:42.262Z,6.40
2024-05-09T01:44:52.401Z,6.80
2024-05-09T01:45:02.533Z,7.40
2024-05-09T01:45:12.559Z,7.30
2024-05-09T01:45:22.668Z,5.90
2024-05-09T01:45:32.915Z,5.10
2024-05-09T01:45:42.898Z,4.70
2024-05-09T01:45:53.040Z,5.00
2024-05-09T01:46:03.171Z,5.50
2024-05-09T01:46:13.301Z,5.40
2024-05-09T01:46:23.431Z,5.50
2024-05-09T01:46:33.569Z,5.10
2024-05-09T01:46:43.737Z,4.80
2024-05-09T01:46:53.842Z,5.50
2024-05-09T01:47:03.976Z,5.70
2024-05-09T01:47:14.201Z,7.30
2024-05-09T01:47:24.398Z,6.50
2024-05-09T01:47:34.448Z,7.90
2024-05-09T01:47:44.453Z,6.00
2024-05-09T01:47:54.669Z,6.40
2024-05-09T01:48:04.841Z,4.80
2024-05-09T01:48:14.720Z,5.60
2024-05-09T01:48:24.559Z,5.80
2024-05-09T01:48:34.543Z,7.00
2024-05-09T01:48:44.618Z,7.10
2024-05-09T01:48:54.891Z,6.20
2024-05-09T01:49:04.844Z,4.80
2024-05-09T01:49:14.977Z,4.20
2024-05-09T01:49:24.950Z,4.30
2024-05-09T01:49:35.032Z,6.30
2024-05-09T01:49:45.009Z,8.10
2024-05-09T01:49:54.991Z,8.10
2024-05-09T01:50:08.958Z,7.80
2024-05-09T01:50:16.663Z,6.10
2024-05-09T01:50:37.148Z,5.30
2024-05-09T01:50:40.809Z,5.90
2024-05-09T01:50:48.008Z,6.50
2024-05-09T01:50:58.063Z,5.50
2024-05-09T01:51:08.163Z,6.00
2024-05-09T01:51:18.150Z,5.80
2024-05-09T01:51:28.142Z,6.20
2024-05-09T01:51:38.127Z,5.50
2024-05-09T01:51:48.116Z,5.60
2024-05-09T01:51:58.274Z,5.50
2024-05-09T01:52:08.428Z,5.70
2024-05-09T01:52:18.630Z,5.10
2024-05-09T01:52:28.592Z,5.20
2024-05-09T01:52:38.745Z,5.20
2024-05-09T01:52:48.981Z,7.10
2024-05-09T01:52:58.961Z,7.60
2024-05-09T01:53:09.223Z,7.70
2024-05-09T01:53:19.227Z,5.90
2024-05-09T01:53:29.266Z,5.30
2024-05-09T01:53:39.492Z,4.80
2024-05-09T01:53:49.436Z,5.10
2024-05-09T01:53:59.440Z,5.00
2024-05-09T01:54:09.425Z,5.40
2024-05-09T01:54:19.439Z,5.20
2024-05-09T01:54:29.570Z,5.90
2024-05-09T01:54:39.726Z,6.00
2024-05-09T01:54:49.904Z,7.40
2024-05-09T01:55:02.002Z,6.00
2024-05-09T01:55:09.931Z,6.40
2024-05-09T01:55:20.089Z,6.50
2024-05-09T01:55:30.241Z,7.50
2024-05-09T01:55:40.405Z,7.00
2024-05-09T01:55:50.573Z,5.10
2024-05-09T01:56:00.749Z,4.10
2024-05-09T01:56:10.920Z,8.40
2024-05-09T01:56:20.968Z,8.70
2024-05-09T01:56:31.087Z,9.40
2024-05-09T01:56:41.124Z,5.50
2024-05-09T01:56:51.232Z,6.10
2024-05-09T01:57:01.376Z,5.10
2024-05-09T01:57:11.530Z,6.20
2024-05-09T01:57:21.667Z,5.70
2024-05-09T01:57:31.788Z,6.50
2024-05-09T01:57:41.927Z,6.20
2024-05-09T01:57:52.051Z,6.80
2024-05-09T01:58:02.185Z,6.50
2024-05-09T01:58:12.299Z,5.20
2024-05-09T01:58:22.448Z,4.60
2024-05-09T01:58:32.577Z,4.70
2024-05-09T01:58:42.779Z,5.10
2024-05-09T01:58:52.736Z,5.50
2024-05-09T01:59:02.862Z,5.20
2024-05-09T01:59:12.882Z,6.20
2024-05-09T01:59:23.057Z,6.20
2024-05-09T01:59:33.283Z,6.70
2024-05-09T01:59:43.090Z,5.90
2024-05-09T01:59:53.222Z,5.10
2024-05-09T02:00:03.860Z,4.90
2024-05-09T02:00:18.826Z,4.50
2024-05-09T02:00:33.897Z,4.20
2024-05-09T02:00:39.867Z,5.70
2024-05-09T02:00:46.268Z,6.00
2024-05-09T02:00:56.242Z,6.30
2024-05-09T02:01:06.425Z,6.40
2024-05-09T02:01:16.402Z,6.30
2024-05-09T02:01:26.404Z,5.40
2024-05-09T02:01:55.646Z,5.00
2024-05-09T02:01:56.566Z,6.70
2024-05-09T02:01:58.316Z,6.40
2024-05-09T02:02:08.509Z,5.50
2024-05-09T02:02:18.420Z,5.20
2024-05-09T02:02:28.485Z,5.30
2024-05-09T02:02:38.530Z,5.80
2024-05-09T02:02:48.561Z,5.80
2024-05-09T02:02:58.655Z,7.10
2024-05-09T02:03:09.046Z,6.40
2024-05-09T02:03:18.876Z,6.30
2024-05-09T02:03:28.846Z,5.60
2024-05-09T02:03:39.046Z,5.00
2024-05-09T02:03:49.172Z,6.80
2024-05-09T02:03:59.249Z,6.60
2024-05-09T02:04:09.293Z,7.90
2024-05-09T02:04:19.540Z,7.50
2024-05-09T02:04:29.229Z,7.80
2024-05-09T02:04:39.332Z,7.00
2024-05-09T02:04:49.405Z,5.60
2024-05-09T02:04:59.515Z,5.20
2024-05-09T02:05:09.737Z,5.60
2024-05-09T02:05:19.557Z,5.90
2024-05-09T02:05:29.661Z,6.20
2024-05-09T02:05:39.717Z,5.90
2024-05-09T02:05:49.887Z,5.50
2024-05-09T02:05:59.707Z,5.10
2024-05-09T02:06:09.786Z,5.20
2024-05-09T02:06:19.777Z,5.00
2024-05-09T02:06:29.927Z,5.10
2024-05-09T02:06:39.914Z,5.00
2024-05-09T02:06:50.057Z,5.20
2024-05-09T02:07:00.239Z,4.80
2024-05-09T02:07:10.237Z,4.70
2024-05-09T02:07:20.206Z,4.80
2024-05-09T02:07:30.340Z,5.40
2024-05-09T02:07:40.503Z,6.10
2024-05-09T02:07:50.685Z,6.80
2024-05-09T02:08:00.742Z,6.70
2024-05-09T02:08:10.746Z,7.00
2024-05-09T02:08:21.264Z,6.10
2024-05-09T02:08:30.919Z,5.50
2024-05-09T02:08:40.902Z,6.10
2024-05-09T02:08:51.117Z,6.30
2024-05-09T02:09:01.163Z,6.40
2024-05-09T02:09:11.309Z,5.30
2024-05-09T02:09:21.476Z,6.50
2024-05-09T02:09:31.453Z,6.60
2024-05-09T02:09:41.615Z,6.50
2024-05-09T02:09:51.620Z,5.10
2024-05-09T02:10:02.052Z,4.80
2024-05-09T02:10:20.057Z,5.60
2024-05-09T02:10:26.637Z,5.60
2024-05-09T02:10:33.886Z,9.20
2024-05-09T02:10:43.829Z,8.50
2024-05-09T02:10:53.921Z,8.00
2024-05-09T02:11:04.227Z,4.60
2024-05-09T02:11:14.223Z,5.60
2024-05-09T02:11:24.241Z,6.00
2024-05-09T02:11:34.277Z,5.50
2024-05-09T02:11:44.335Z,4.80
2024-05-09T02:11:54.372Z,6.20
2024-05-09T02:12:04.443Z,6.40
2024-05-09T02:12:14.614Z,8.60
2024-05-09T02:12:24.561Z,6.90
2024-05-09T02:12:34.513Z,6.90
2024-05-09T02:12:44.466Z,4.50
2024-05-09T02:12:54.606Z,5.90
2024-05-09T02:13:04.759Z,6.70
2024-05-09T02:13:14.952Z,7.20
2024-05-09T02:13:24.931Z,7.20
2024-05-09T02:13:35.090Z,6.50
2024-05-09T02:13:45.255Z,5.60
2024-05-09T02:13:55.409Z,4.00
2024-05-09T02:14:05.592Z,5.00
2024-05-09T02:14:15.625Z,5.10
2024-05-09T02:14:25.685Z,5.30
2024-05-09T02:14:35.723Z,4.90
2024-05-09T02:14:45.859Z,5.40
2024-05-09T02:14:55.998Z,5.50